createdAt,value
2018-10-21T00:00:42.166Z,37.23
2018-10-21T00:03:10.982Z,28.10
2018-10-21T00:05:39.779Z,30.67
2018-10-21T00:08:08.553Z,24.67
2018-10-21T00:10:37.238Z,25.67
2018-10-21T00:13:06.123Z,24.30
2018-10-21T00:15:35.023Z,32.97
2018-10-21T00:18:04.195Z,19.73
2018-10-21T00:20:34.869Z,16.03
2018-10-21T00:23:03.481Z,23.30
2018-10-21T00:25:32.119Z,18.73
2018-10-21T00:28:00.824Z,20.57
2018-10-21T00:30:29.523Z,26.83
2018-10-21T00:32:58.661Z,23.40
2018-10-21T00:35:27.452Z,28.80
2018-10-21T00:37:56.128Z,35.43
2018-10-21T00:40:24.690Z,20.13
2018-10-21T00:42:53.307Z,23.73
2018-10-21T00:45:21.955Z,23.63
2018-10-21T00:47:50.548Z,26.03
2018-10-21T00:50:19.490Z,20.63
2018-10-21T00:52:48.088Z,30.43
2018-10-21T00:55:16.868Z,19.37
2018-10-21T00:57:45.522Z,27.27
2018-10-21T01:00:14.244Z,22.07
2018-10-21T01:02:42.819Z,28.00
2018-10-21T01:05:11.798Z,22.50
2018-10-21T01:07:40.625Z,23.80
2018-10-21T01:10:11.379Z,23.27
2018-10-21T01:12:40.441Z,22.00
2018-10-21T01:15:10.759Z,24.20
2018-10-21T01:17:39.650Z,26.63
2018-10-21T01:20:13.277Z,29.97
2018-10-21T01:22:42.343Z,23.87
2018-10-21T01:25:11.587Z,20.80
2018-10-21T01:27:41.340Z,23.00
2018-10-21T01:30:11.625Z,39.37
2018-10-21T01:32:40.255Z,28.87
2018-10-21T01:35:09.338Z,25.23
2018-10-21T01:37:38.466Z,33.53
2018-10-21T01:40:45.635Z,22.73
2018-10-21T01:43:15.875Z,24.10
2018-10-21T01:45:45.027Z,22.40
2018-10-21T01:48:14.928Z,22.77
2018-10-21T01:50:43.596Z,24.93
2018-10-21T01:53:13.164Z,24.97
2018-10-21T01:55:41.772Z,26.43
2018-10-21T01:58:10.391Z,20.20
2018-10-21T02:00:40.058Z,25.23
2018-10-21T02:03:08.782Z,25.70
2018-10-21T02:05:41.784Z,22.70
2018-10-21T02:08:10.513Z,27.43
2018-10-21T02:10:39.084Z,24.83
2018-10-21T02:13:08.327Z,23.83
2018-10-21T02:15:37.177Z,25.50
2018-10-21T02:18:05.962Z,25.63
2018-10-21T02:20:34.563Z,23.50
2018-10-21T02:23:03.295Z,22.63
2018-10-21T02:25:31.994Z,23.80
2018-10-21T02:28:00.895Z,23.27
2018-10-21T02:30:30.616Z,22.43
2018-10-21T02:33:00.145Z,19.50
2018-10-21T02:35:29.006Z,23.77
2018-10-21T02:37:58.169Z,22.30
2018-10-21T02:41:40.556Z,22.63
2018-10-21T02:44:11.163Z,25.73
2018-10-21T02:46:40.162Z,29.17
2018-10-21T02:49:09.747Z,19.93
2018-10-21T02:51:38.404Z,23.10
2018-10-21T02:54:07.463Z,23.00
2018-10-21T02:56:36.008Z,20.50
2018-10-21T02:59:05.259Z,28.03
2018-10-21T03:01:33.996Z,28.30
2018-10-21T03:04:02.610Z,26.00
2018-10-21T03:06:31.186Z,23.07
2018-10-21T03:08:59.480Z,24.83
2018-10-21T03:11:28.221Z,24.43
2018-10-21T03:13:56.897Z,23.60
2018-10-21T03:16:25.752Z,20.13
2018-10-21T03:18:54.434Z,26.83
2018-10-21T03:21:23.129Z,28.93
2018-10-21T03:23:51.791Z,23.70
2018-10-21T03:26:22.598Z,25.13
2018-10-21T03:28:51.224Z,37.10
2018-10-21T03:31:19.836Z,26.30
2018-10-21T03:33:48.436Z,34.30
2018-10-21T03:36:17.359Z,22.73
2018-10-21T03:38:45.977Z,29.40
2018-10-21T03:41:14.555Z,26.23
2018-10-21T03:43:43.354Z,27.73
2018-10-21T03:46:13.429Z,20.50
2018-10-21T03:48:42.399Z,26.80
2018-10-21T03:51:11.170Z,25.17
2018-10-21T03:53:39.815Z,30.90
2018-10-21T03:56:08.375Z,28.00
2018-10-21T03:58:36.956Z,24.33
2018-10-21T04:01:06.018Z,23.30
2018-10-21T04:03:35.285Z,25.97
2018-10-21T04:06:03.908Z,23.50
2018-10-21T04:08:32.511Z,24.90
2018-10-21T04:11:01.170Z,23.17
2018-10-21T04:13:29.932Z,21.40
2018-10-21T04:15:58.634Z,26.57
2018-10-21T04:18:27.291Z,25.63
2018-10-21T04:20:55.920Z,24.33
2018-10-21T04:23:24.804Z,26.40
2018-10-21T04:25:53.375Z,26.20
2018-10-21T04:28:22.292Z,19.13
2018-10-21T04:30:50.870Z,24.30
2018-10-21T04:33:23.675Z,31.23
2018-10-21T04:35:52.459Z,23.60
2018-10-21T04:38:32.899Z,32.60
2018-10-21T04:41:01.553Z,27.57
2018-10-21T04:43:30.208Z,19.60
2018-10-21T04:45:58.870Z,23.27
2018-10-21T04:48:27.781Z,23.70
2018-10-21T04:50:56.432Z,17.20
2018-10-21T04:53:25.026Z,26.50
2018-10-21T04:55:53.746Z,22.17
2018-10-21T04:58:22.428Z,23.60
2018-10-21T05:00:51.093Z,22.93
2018-10-21T05:03:19.784Z,25.30
2018-10-21T05:05:48.461Z,23.73
2018-10-21T05:08:17.002Z,24.83
2018-10-21T05:10:45.585Z,27.07
2018-10-21T05:13:14.234Z,22.67
2018-10-21T05:15:42.840Z,26.37
2018-10-21T05:18:11.499Z,25.10
2018-10-21T05:20:40.055Z,25.07
2018-10-21T05:23:08.655Z,23.27
2018-10-21T05:25:37.360Z,23.97
2018-10-21T05:28:06.377Z,22.30
2018-10-21T05:30:35.155Z,18.80
2018-10-21T05:33:03.775Z,25.17
2018-10-21T05:35:32.530Z,22.50
2018-10-21T05:38:01.316Z,26.53
2018-10-21T05:40:30.018Z,24.33
2018-10-21T05:42:58.829Z,26.70
2018-10-21T05:45:27.542Z,26.93
2018-10-21T05:47:56.245Z,21.30
2018-10-21T05:50:24.850Z,28.70
2018-10-21T05:52:53.408Z,23.00
2018-10-21T05:55:22.127Z,27.67
2018-10-21T05:57:50.796Z,25.53
2018-10-21T06:00:20.341Z,25.43
2018-10-21T06:02:48.879Z,23.30
2018-10-21T06:05:38.636Z,23.93
2018-10-21T06:08:07.342Z,21.53
2018-10-21T06:10:36.100Z,23.77
2018-10-21T06:13:05.127Z,23.93
2018-10-21T06:15:33.788Z,24.63
2018-10-21T06:18:03.356Z,20.50
2018-10-21T06:20:38.811Z,24.27
2018-10-21T06:23:07.375Z,23.77
2018-10-21T06:25:35.932Z,22.03
2018-10-21T06:28:04.808Z,23.37
2018-10-21T06:30:33.539Z,21.97
2018-10-21T06:33:02.359Z,17.87
2018-10-21T06:35:31.226Z,25.70
2018-10-21T06:37:59.766Z,29.23
2018-10-21T06:40:28.464Z,22.43
2018-10-21T06:42:57.183Z,28.33
2018-10-21T06:45:25.901Z,20.17
2018-10-21T06:47:55.188Z,34.73
2018-10-21T06:50:23.806Z,28.33
2018-10-21T06:52:52.419Z,26.20
2018-10-21T06:55:21.059Z,25.43
2018-10-21T06:57:49.781Z,27.40
2018-10-21T07:00:18.528Z,26.93
2018-10-21T07:02:47.155Z,21.80
2018-10-21T07:05:27.066Z,22.00
2018-10-21T07:07:55.742Z,22.90
2018-10-21T07:10:24.334Z,27.67
2018-10-21T07:12:52.946Z,25.17
2018-10-21T07:15:21.803Z,22.23
2018-10-21T07:17:50.512Z,28.60
2018-10-21T07:20:19.152Z,23.13
2018-10-21T07:22:47.745Z,21.53
2018-10-21T07:25:16.252Z,26.63
2018-10-21T07:27:44.844Z,28.23
2018-10-21T07:30:13.919Z,23.57
2018-10-21T07:32:43.390Z,21.43
2018-10-21T07:35:13.438Z,24.13
2018-10-21T07:37:42.886Z,23.97
2018-10-21T07:40:12.345Z,19.23
2018-10-21T07:42:41.252Z,21.00
2018-10-21T07:45:10.040Z,27.47
2018-10-21T07:47:38.616Z,18.33
2018-10-21T07:50:07.313Z,18.90
2018-10-21T07:52:36.105Z,30.30
2018-10-21T07:55:04.805Z,21.10
2018-10-21T07:57:33.663Z,21.93
2018-10-21T08:00:02.275Z,19.57
2018-10-21T08:02:30.879Z,19.90
2018-10-21T08:04:59.496Z,20.73
2018-10-21T08:07:39.424Z,21.70
2018-10-21T08:10:08.157Z,18.37
2018-10-21T08:12:36.938Z,16.13
2018-10-21T08:15:05.777Z,22.97
2018-10-21T08:17:34.813Z,18.20
2018-10-21T08:20:03.516Z,20.47
2018-10-21T08:22:32.194Z,16.87
2018-10-21T08:25:00.892Z,18.43
2018-10-21T08:27:29.553Z,24.47
2018-10-21T08:29:58.151Z,15.60
2018-10-21T08:32:26.839Z,19.03
2018-10-21T08:34:55.395Z,18.57
2018-10-21T08:37:23.992Z,17.10
2018-10-21T08:39:52.580Z,17.60
2018-10-21T08:42:21.259Z,14.47
2018-10-21T08:44:49.830Z,16.50
2018-10-21T08:47:18.491Z,18.17
2018-10-21T08:49:47.130Z,17.77
2018-10-21T08:52:15.984Z,16.17
2018-10-21T08:54:44.722Z,16.03
2018-10-21T08:57:13.489Z,12.03
2018-10-21T08:59:42.089Z,13.13
2018-10-21T09:02:10.949Z,17.33
2018-10-21T09:04:39.667Z,8.30
2018-10-21T09:07:08.373Z,11.27
2018-10-21T09:09:37.127Z,13.80
2018-10-21T09:12:06.659Z,13.40
2018-10-21T09:14:35.291Z,13.30
2018-10-21T09:17:04.228Z,15.53
2018-10-21T09:19:32.795Z,12.57
2018-10-21T09:22:01.417Z,10.73
2018-10-21T09:24:29.996Z,8.90
2018-10-21T09:26:58.637Z,12.17
2018-10-21T09:29:27.196Z,10.90
2018-10-21T09:31:55.779Z,14.43
2018-10-21T09:34:24.443Z,9.73
2018-10-21T09:36:53.120Z,9.77
2018-10-21T09:39:21.731Z,9.13
2018-10-21T09:41:50.436Z,10.27
2018-10-21T09:44:19.066Z,6.83
2018-10-21T09:46:48.022Z,9.40
2018-10-21T09:49:16.700Z,9.43
2018-10-21T09:51:45.395Z,10.97
2018-10-21T09:54:14.002Z,6.67
2018-10-21T09:56:42.741Z,6.03
2018-10-21T09:59:11.365Z,6.90
2018-10-21T10:01:45.201Z,6.50
2018-10-21T10:04:13.860Z,4.27
2018-10-21T10:06:42.717Z,5.57
2018-10-21T10:09:13.053Z,10.80
2018-10-21T10:11:42.907Z,5.00
2018-10-21T10:14:11.622Z,6.07
2018-10-21T10:16:40.257Z,6.73
2018-10-21T10:19:08.975Z,4.00
2018-10-21T10:21:37.866Z,5.07
2018-10-21T10:24:06.508Z,6.00
2018-10-21T10:26:35.496Z,6.23
2018-10-21T10:29:04.437Z,6.70
2018-10-21T10:31:33.121Z,7.90
2018-10-21T10:34:01.692Z,6.10
2018-10-21T10:36:30.572Z,7.10
2018-10-21T10:38:59.343Z,4.77
2018-10-21T10:41:28.442Z,3.20
2018-10-21T10:43:57.107Z,3.73
2018-10-21T10:46:25.762Z,4.37
2018-10-21T10:48:54.594Z,3.03
2018-10-21T10:51:23.267Z,4.33
2018-10-21T10:53:51.981Z,3.83
2018-10-21T10:56:21.536Z,4.07
2018-10-21T10:58:50.163Z,4.27
2018-10-21T11:01:18.901Z,4.43
2018-10-21T11:03:47.687Z,4.53
2018-10-21T11:06:16.504Z,9.77
2018-10-21T11:08:45.387Z,4.00
2018-10-21T11:11:14.078Z,3.33
2018-10-21T11:13:42.693Z,4.67
2018-10-21T11:16:11.550Z,3.63
2018-10-21T11:18:40.341Z,7.17
2018-10-21T11:21:08.980Z,6.40
2018-10-21T11:23:37.691Z,5.37
2018-10-21T11:26:06.494Z,6.37
2018-10-21T11:28:35.097Z,9.10
2018-10-21T11:31:03.811Z,5.70
2018-10-21T11:33:32.623Z,10.00
2018-10-21T11:36:01.577Z,9.00
2018-10-21T11:38:30.323Z,5.53
2018-10-21T11:40:58.951Z,6.13
2018-10-21T11:43:27.922Z,6.50
2018-10-21T11:45:56.658Z,7.93
2018-10-21T11:48:25.516Z,10.13
2018-10-21T11:50:54.194Z,6.20
2018-10-21T11:53:23.203Z,6.97
2018-10-21T11:55:51.807Z,8.50
2018-10-21T11:58:20.435Z,6.77
2018-10-21T12:00:49.141Z,5.17
2018-10-21T12:03:17.847Z,6.70
2018-10-21T12:05:46.494Z,5.10
2018-10-21T12:08:15.159Z,3.70
2018-10-21T12:10:43.740Z,9.03
2018-10-21T12:13:12.418Z,7.93
2018-10-21T12:15:41.215Z,9.80
2018-10-21T12:18:09.771Z,4.87
2018-10-21T12:20:39.078Z,5.70
2018-10-21T12:23:07.965Z,5.80
2018-10-21T12:25:36.818Z,7.87
2018-10-21T12:28:05.816Z,5.60
2018-10-21T12:30:34.723Z,7.83
2018-10-21T12:33:03.391Z,9.50
2018-10-21T12:35:32.183Z,9.70
2018-10-21T12:38:00.817Z,13.77
2018-10-21T12:40:29.497Z,9.03
2018-10-21T12:42:58.540Z,8.27
2018-10-21T12:45:27.683Z,8.80
2018-10-21T12:47:56.407Z,10.37
2018-10-21T12:50:25.242Z,9.50
2018-10-21T12:52:54.174Z,13.60
2018-10-21T12:55:23.053Z,17.43
2018-10-21T12:57:51.842Z,10.70
2018-10-21T13:00:20.762Z,15.10
2018-10-21T13:02:49.404Z,14.43
2018-10-21T13:05:17.939Z,7.47
2018-10-21T13:07:46.688Z,11.30
2018-10-21T13:10:15.401Z,9.60
2018-10-21T13:12:44.171Z,16.07
2018-10-21T13:15:12.987Z,12.57
2018-10-21T13:17:41.752Z,16.10
2018-10-21T13:20:10.855Z,8.90
2018-10-21T13:22:39.498Z,14.33
2018-10-21T13:25:08.575Z,10.20
2018-10-21T13:27:37.542Z,7.17
2018-10-21T13:30:07.075Z,10.97
2018-10-21T13:32:35.635Z,9.57
2018-10-21T13:35:04.276Z,10.87
2018-10-21T13:37:33.040Z,11.57
2018-10-21T13:40:01.844Z,8.93
2018-10-21T13:42:30.788Z,10.97
2018-10-21T13:44:59.451Z,10.10
2018-10-21T13:47:28.128Z,9.03
2018-10-21T13:49:56.744Z,13.00
2018-10-21T13:52:25.460Z,8.20
2018-10-21T13:54:54.422Z,11.80
2018-10-21T13:57:23.266Z,7.63
2018-10-21T13:59:52.008Z,11.70
2018-10-21T14:02:20.763Z,9.13
2018-10-21T14:04:49.399Z,8.33
2018-10-21T14:07:18.411Z,8.93
2018-10-21T14:09:47.242Z,7.30
2018-10-21T14:12:15.858Z,7.13
2018-10-21T14:14:44.500Z,7.53
2018-10-21T14:17:13.330Z,7.73
2018-10-21T14:19:42.112Z,6.33
2018-10-21T14:22:11.141Z,6.90
2018-10-21T14:24:40.089Z,9.70
2018-10-21T14:29:51.080Z,7.93
2018-10-21T14:32:20.006Z,10.30
2018-10-21T14:34:48.710Z,6.87
2018-10-21T14:37:17.450Z,6.83
2018-10-21T14:39:46.005Z,9.80
2018-10-21T14:42:14.678Z,11.33
2018-10-21T14:44:43.502Z,11.80
2018-10-21T14:47:12.151Z,6.07
2018-10-21T14:49:40.846Z,7.70
2018-10-21T14:52:09.452Z,7.90
2018-10-21T14:54:38.468Z,9.90
2018-10-21T14:57:07.226Z,6.73
2018-10-21T14:59:35.927Z,8.60
2018-10-21T15:02:04.952Z,8.63
2018-10-21T15:04:33.767Z,5.20
2018-10-21T15:07:02.445Z,7.50
2018-10-21T15:09:31.081Z,6.23
2018-10-21T15:11:59.968Z,9.97
2018-10-21T15:14:28.691Z,7.03
2018-10-21T15:16:57.312Z,12.93
2018-10-21T15:19:25.903Z,7.27
2018-10-21T15:22:00.707Z,8.80
2018-10-21T15:24:29.476Z,7.57
2018-10-21T15:26:58.337Z,5.23
2018-10-21T15:29:26.839Z,5.83
2018-10-21T15:31:55.694Z,8.37
2018-10-21T15:34:24.966Z,6.67
2018-10-21T15:36:54.060Z,4.43
2018-10-21T15:39:23.209Z,5.93
2018-10-21T15:41:52.010Z,6.90
2018-10-21T15:44:20.946Z,7.17
2018-10-21T15:46:49.987Z,5.87
2018-10-21T15:49:18.901Z,5.73
2018-10-21T15:51:47.770Z,8.83
2018-10-21T15:54:16.823Z,5.20
2018-10-21T15:56:45.858Z,6.40
2018-10-21T15:59:14.679Z,8.60
2018-10-21T16:01:43.418Z,10.93
2018-10-21T16:04:12.216Z,5.17
2018-10-21T16:06:40.715Z,7.47
2018-10-21T16:09:11.314Z,4.80
2018-10-21T16:11:40.036Z,5.30
2018-10-21T16:14:08.841Z,6.23
2018-10-21T16:16:37.486Z,8.20
2018-10-21T16:19:06.560Z,5.33
2018-10-21T16:21:36.521Z,4.97
2018-10-21T16:24:05.624Z,12.00
2018-10-21T16:26:34.986Z,8.03
2018-10-21T16:29:03.895Z,5.63
2018-10-21T16:31:32.583Z,6.40
2018-10-21T16:34:01.378Z,11.50
2018-10-21T16:36:30.380Z,7.17
2018-10-21T16:38:59.112Z,6.93
2018-10-21T16:41:30.025Z,6.07
2018-10-21T16:43:58.766Z,6.77
2018-10-21T16:46:27.602Z,10.97
2018-10-21T16:48:56.439Z,8.53
2018-10-21T16:51:25.316Z,5.90
2018-10-21T16:53:54.019Z,13.23
2018-10-21T16:56:23.022Z,5.83
2018-10-21T16:58:51.661Z,7.23
2018-10-21T17:01:20.703Z,5.30
2018-10-21T17:03:49.535Z,6.43
2018-10-21T17:06:18.374Z,8.37
2018-10-21T17:08:46.982Z,7.73
2018-10-21T17:11:15.694Z,7.77
2018-10-21T17:13:44.493Z,5.80
2018-10-21T17:16:13.140Z,7.30
2018-10-21T17:18:42.049Z,7.43
2018-10-21T17:21:10.699Z,6.23
2018-10-21T17:23:39.430Z,7.00
2018-10-21T17:26:10.164Z,12.83
2018-10-21T17:28:38.874Z,19.27
2018-10-21T17:31:14.839Z,14.93
2018-10-21T17:34:02.433Z,17.20
2018-10-21T17:36:31.277Z,17.63
2018-10-21T17:39:00.052Z,14.63
2018-10-21T17:41:28.829Z,16.40
2018-10-21T17:43:57.685Z,11.87
2018-10-21T17:46:26.470Z,12.60
2018-10-21T17:48:55.507Z,7.80
2018-10-21T17:51:24.387Z,9.60
2018-10-21T17:53:53.290Z,10.43
2018-10-21T17:56:22.178Z,11.67
2018-10-21T17:58:51.132Z,8.03
2018-10-21T18:01:20.359Z,10.63
2018-10-21T18:03:49.207Z,9.10
2018-10-21T18:06:17.970Z,15.00
2018-10-21T18:08:46.680Z,11.07
2018-10-21T18:11:15.382Z,10.40
2018-10-21T18:13:44.608Z,12.17
2018-10-21T18:16:13.352Z,9.83
2018-10-21T18:18:42.100Z,11.60
2018-10-21T18:21:10.772Z,11.83
2018-10-21T18:23:39.515Z,15.33
2018-10-21T18:26:08.234Z,12.67
2018-10-21T18:28:37.038Z,11.23
2018-10-21T18:31:06.188Z,14.70
2018-10-21T18:33:35.016Z,9.67
2018-10-21T18:36:05.128Z,9.10
2018-10-21T18:38:33.830Z,9.73
2018-10-21T18:41:02.721Z,14.40
2018-10-21T18:43:31.407Z,13.20
2018-10-21T18:46:00.082Z,12.40
2018-10-21T18:48:28.957Z,11.87
2018-10-21T18:50:57.712Z,10.47
2018-10-21T18:53:26.383Z,11.87
2018-10-21T18:55:55.124Z,17.77
2018-10-21T18:58:23.807Z,13.67
2018-10-21T19:00:52.403Z,18.90
2018-10-21T19:03:21.569Z,13.47
2018-10-21T19:05:50.236Z,13.70
2018-10-21T19:08:18.799Z,13.10
2018-10-21T19:10:47.377Z,15.27
2018-10-21T19:13:16.095Z,15.67
2018-10-21T19:15:45.011Z,11.27
2018-10-21T19:18:13.671Z,12.53
2018-10-21T19:20:42.363Z,11.97
2018-10-21T19:23:11.059Z,18.23
2018-10-21T19:25:39.800Z,15.20
2018-10-21T19:28:08.471Z,15.20
2018-10-21T19:30:37.564Z,11.03
2018-10-21T19:33:06.438Z,13.87
2018-10-21T19:35:35.042Z,10.83
2018-10-21T19:38:03.707Z,14.20
2018-10-21T19:40:32.311Z,8.67
2018-10-21T19:43:01.079Z,10.57
2018-10-21T19:45:30.021Z,11.10
2018-10-21T19:47:58.623Z,9.10
2018-10-21T19:50:27.359Z,11.80
2018-10-21T19:52:55.971Z,12.53
2018-10-21T19:55:24.656Z,10.23
2018-10-21T19:57:53.288Z,11.47
2018-10-21T20:00:21.907Z,8.03
2018-10-21T20:02:50.721Z,10.07
2018-10-21T20:05:19.303Z,11.47
2018-10-21T20:07:48.461Z,9.47
2018-10-21T20:10:17.252Z,9.73
2018-10-21T20:12:46.039Z,10.00
2018-10-21T20:15:14.764Z,10.20
2018-10-21T20:17:43.427Z,9.40
2018-10-21T20:20:12.568Z,9.10
2018-10-21T20:22:41.181Z,12.47
2018-10-21T20:25:10.695Z,10.40
2018-10-21T20:27:39.423Z,10.30
2018-10-21T20:30:09.659Z,9.50
2018-10-21T20:32:38.179Z,7.40
2018-10-21T20:35:08.161Z,10.03
2018-10-21T20:37:36.926Z,12.07
2018-10-21T20:40:06.544Z,8.97
2018-10-21T20:42:35.288Z,12.27
2018-10-21T20:45:04.282Z,18.00
2018-10-21T20:47:32.883Z,10.83
2018-10-21T20:50:01.418Z,13.23
2018-10-21T20:52:29.999Z,10.20
2018-10-21T20:54:58.560Z,8.43
2018-10-21T20:57:27.159Z,9.27
2018-10-21T20:59:55.783Z,12.93
2018-10-21T21:02:24.520Z,11.77
2018-10-21T21:04:53.124Z,10.07
2018-10-21T21:07:21.715Z,11.20
2018-10-21T21:09:50.299Z,8.73
2018-10-21T21:12:18.953Z,8.80
2018-10-21T21:14:47.746Z,10.33
2018-10-21T21:17:16.345Z,13.80
2018-10-21T21:19:44.997Z,8.30
2018-10-21T21:22:13.688Z,9.67
2018-10-21T21:24:42.400Z,8.10
2018-10-21T21:27:11.436Z,9.20
2018-10-21T21:29:40.092Z,9.47
2018-10-21T21:32:09.124Z,7.30
2018-10-21T21:34:39.439Z,9.20
2018-10-21T21:37:08.213Z,9.90
2018-10-21T21:39:36.932Z,9.40
2018-10-21T21:42:05.781Z,7.57
2018-10-21T21:44:34.561Z,10.80
2018-10-21T21:47:03.205Z,12.43
2018-10-21T21:49:31.853Z,5.53
2018-10-21T21:52:00.430Z,9.30
2018-10-21T21:54:29.210Z,9.77
2018-10-21T21:56:57.852Z,7.53
2018-10-21T21:59:26.472Z,8.40
2018-10-21T22:01:57.160Z,8.60
2018-10-21T22:04:25.723Z,9.77
2018-10-21T22:06:54.300Z,9.37
2018-10-21T22:09:22.907Z,18.13
2018-10-21T22:11:51.570Z,9.60
2018-10-21T22:14:20.325Z,14.33
2018-10-21T22:16:49.009Z,10.47
2018-10-21T22:19:17.638Z,8.33
2018-10-21T22:21:46.278Z,9.13
2018-10-21T22:24:15.319Z,6.93
2018-10-21T22:26:44.432Z,6.70
2018-10-21T22:29:13.047Z,9.00
2018-10-21T22:31:41.663Z,7.67
2018-10-21T22:34:10.413Z,8.80
2018-10-21T22:36:39.262Z,11.03
2018-10-21T22:39:08.382Z,13.17
2018-10-21T22:41:37.308Z,9.23
2018-10-21T22:44:06.078Z,9.97
2018-10-21T22:46:34.775Z,8.27
2018-10-21T22:49:03.637Z,7.90
2018-10-21T22:51:32.223Z,10.97
2018-10-21T22:54:00.855Z,5.07
2018-10-21T22:56:29.621Z,9.50
2018-10-21T22:58:58.306Z,9.10
2018-10-21T23:01:26.972Z,8.20
2018-10-21T23:03:55.661Z,10.90
2018-10-21T23:06:24.656Z,11.10
2018-10-21T23:08:53.247Z,17.47
2018-10-21T23:11:21.890Z,6.80
2018-10-21T23:13:50.506Z,10.90
2018-10-21T23:16:19.173Z,7.87
2018-10-21T23:18:47.963Z,5.83
2018-10-21T23:21:16.776Z,8.40
2018-10-21T23:23:45.341Z,7.50
2018-10-21T23:26:13.956Z,7.10
2018-10-21T23:28:42.519Z,6.10
2018-10-21T23:31:11.059Z,7.77
2018-10-21T23:33:39.631Z,7.00
2018-10-21T23:36:08.229Z,7.17
2018-10-21T23:38:36.915Z,10.00
2018-10-21T23:41:05.846Z,9.30
2018-10-21T23:43:34.429Z,9.10
2018-10-21T23:46:03.107Z,6.27
2018-10-21T23:48:31.819Z,10.07
2018-10-21T23:51:00.457Z,7.53
2018-10-21T23:53:28.997Z,6.80
2018-10-21T23:55:57.566Z,7.10
2018-10-21T23:58:26.259Z,9.10
